Time;durP1;ratioP1;P1;durP2;ratioP2;P2;SDS_P1;SDS_P2;PMS_P1;PMS_P2;Temp;Humidity;BMP_temperature;BMP_pressure;BME280_temperature;BME280_humidity;BME280_pressure;Samples;Min_cycle;Max_cycle;Signal;HPM_P1;HPM_P2
2022/07/07 00:00:11;;;;;;;5.45;3.90;;;13.30;99.90;;;;;;5054685;28;20070;-87
2022/07/07 00:02:37;;;;;;;7.25;5.00;;;13.30;99.90;;;;;;5053204;28;20079;-86
2022/07/07 00:05:03;;;;;;;8.23;4.80;;;13.30;99.90;;;;;;5053032;28;20041;-87
2022/07/07 00:07:29;;;;;;;4.90;4.35;;;13.30;99.90;;;;;;5053276;28;20285;-86
2022/07/07 00:09:54;;;;;;;8.43;5.78;;;13.20;99.90;;;;;;5052622;28;20025;-87
2022/07/07 00:12:20;;;;;;;16.98;8.93;;;13.20;99.90;;;;;;5052826;28;20086;-86
2022/07/07 00:14:48;;;;;;;30.23;14.52;;;13.20;99.90;;;;;;5051879;28;20025;-87
2022/07/07 00:17:14;;;;;;;23.52;11.68;;;13.10;99.90;;;;;;5066592;28;20079;-86
2022/07/07 00:19:40;;;;;;;14.13;7.70;;;13.10;99.90;;;;;;5018272;28;20490;-86
2022/07/07 00:22:05;;;;;;;12.15;5.93;;;13.10;99.90;;;;;;5050483;28;20401;-86
2022/07/07 00:24:31;;;;;;;8.15;5.15;;;13.00;99.90;;;;;;5051139;28;20032;-86
2022/07/07 00:26:57;;;;;;;8.32;5.80;;;13.00;99.90;;;;;;5068403;28;20029;-87
2022/07/07 00:29:23;;;;;;;8.38;5.97;;;12.90;99.90;;;;;;5050982;28;20048;-87
2022/07/07 00:31:51;;;;;;;9.15;5.93;;;12.90;99.90;;;;;;5053851;28;20048;-86
2022/07/07 00:34:17;;;;;;;7.45;5.18;;;12.90;99.90;;;;;;5052846;28;20037;-86
2022/07/07 00:36:43;;;;;;;10.90;5.55;;;12.90;99.90;;;;;;5051363;28;20063;-87
2022/07/07 00:39:09;;;;;;;7.88;4.90;;;12.90;99.90;;;;;;5049229;28;20036;-86
2022/07/07 00:41:34;;;;;;;7.05;5.82;;;12.90;99.90;;;;;;5044861;28;20483;-86
2022/07/07 00:44:01;;;;;;;8.52;5.53;;;12.90;99.90;;;;;;5050071;28;20017;-86
2022/07/07 00:46:41;;;;;;;10.73;5.25;;;12.90;99.90;;;;;;5034239;28;20091;-87
2022/07/07 00:49:06;;;;;;;9.57;5.05;;;12.90;99.90;;;;;;5074355;28;20104;-86
2022/07/07 00:51:32;;;;;;;7.22;5.45;;;13.00;99.90;;;;;;5032610;28;20116;-86
2022/07/07 00:53:58;;;;;;;6.80;4.78;;;12.90;99.90;;;;;;5049672;28;20032;-85
2022/07/07 00:56:26;;;;;;;8.38;4.97;;;13.00;99.90;;;;;;5049819;28;20512;-85
2022/07/07 00:58:51;;;;;;;6.00;4.30;;;13.00;99.90;;;;;;5049500;28;20031;-86
2022/07/07 01:01:17;;;;;;;10.82;4.60;;;13.00;99.90;;;;;;5033292;28;20400;-85
2022/07/07 01:03:43;;;;;;;5.18;4.60;;;13.10;99.90;;;;;;5059514;28;20577;-85
2022/07/07 01:06:10;;;;;;;6.53;4.65;;;13.10;99.90;;;;;;5049810;28;20537;-86
2022/07/07 01:08:36;;;;;;;8.85;5.05;;;13.10;99.90;;;;;;5050182;28;20055;-86
2022/07/07 01:11:04;;;;;;;5.72;4.38;;;13.20;99.90;;;;;;5049602;28;20443;-86
2022/07/07 01:13:30;;;;;;;7.50;4.68;;;13.20;99.90;;;;;;5049808;28;20107;-85
2022/07/07 01:15:56;;;;;;;10.80;4.72;;;13.30;99.90;;;;;;5049354;28;20632;-86
2022/07/07 01:18:21;;;;;;;5.53;4.25;;;13.30;99.90;;;;;;5050763;28;20424;-85
2022/07/07 01:20:47;;;;;;;6.38;4.40;;;13.30;99.90;;;;;;5058305;28;20060;-86
2022/07/07 01:23:14;;;;;;;7.80;4.13;;;13.30;99.90;;;;;;5048980;28;20259;-86
2022/07/07 01:25:42;;;;;;;11.65;4.70;;;13.40;99.90;;;;;;5059805;28;20028;-86
2022/07/07 01:28:11;;;;;;;7.20;4.15;;;13.40;99.90;;;;;;5066179;28;20085;-85
2022/07/07 01:30:36;;;;;;;5.57;3.75;;;13.40;99.90;;;;;;5048925;28;20093;-84
2022/07/07 01:33:02;;;;;;;4.55;3.78;;;13.40;99.90;;;;;;5048532;28;20420;-86
2022/07/07 01:35:28;;;;;;;6.60;3.65;;;13.40;99.90;;;;;;5048622;28;20037;-87
2022/07/07 01:37:54;;;;;;;5.80;3.90;;;13.40;99.90;;;;;;5030646;28;20041;-87
2022/07/07 01:40:24;;;;;;;8.40;4.35;;;13.40;99.90;;;;;;5049720;28;20037;-86
2022/07/07 01:42:50;;;;;;;5.35;4.20;;;13.40;99.90;;;;;;5048611;28;20028;-86
2022/07/07 01:45:15;;;;;;;7.15;3.85;;;13.40;99.90;;;;;;5048466;28;20021;-88
2022/07/07 01:47:41;;;;;;;8.85;4.53;;;13.40;99.90;;;;;;5048356;28;20398;-87
2022/07/07 01:50:07;;;;;;;7.70;4.07;;;13.50;99.90;;;;;;5047741;28;20079;-86
2022/07/07 01:52:33;;;;;;;4.95;3.72;;;13.40;99.90;;;;;;5056898;28;20037;-87
2022/07/07 01:55:01;;;;;;;8.85;4.38;;;13.50;99.90;;;;;;5053681;28;20059;-86
2022/07/07 01:57:27;;;;;;;10.80;4.30;;;13.60;99.90;;;;;;5047682;28;20032;-87
2022/07/07 01:59:53;;;;;;;5.70;3.90;;;13.50;99.90;;;;;;5055386;28;20044;-86
2022/07/07 02:02:18;;;;;;;5.68;3.60;;;13.50;99.90;;;;;;5047722;28;20124;-87
2022/07/07 02:04:44;;;;;;;7.22;3.65;;;13.30;99.90;;;;;;5056535;28;20139;-87
2022/07/07 02:07:10;;;;;;;6.65;4.63;;;13.20;99.90;;;;;;5048137;28;20123;-86
2022/07/07 02:09:43;;;;;;;8.35;4.70;;;13.10;99.90;;;;;;5048163;28;20460;-87
2022/07/07 02:12:09;;;;;;;6.00;5.03;;;13.00;99.90;;;;;;5057826;28;20045;-87
2022/07/07 02:14:35;;;;;;;5.05;4.55;;;12.90;99.90;;;;;;5047920;28;20057;-86
2022/07/07 02:17:01;;;;;;;4.88;4.03;;;12.80;99.90;;;;;;5048616;28;20025;-87
2022/07/07 02:19:26;;;;;;;5.00;4.35;;;12.80;99.90;;;;;;5048694;28;20017;-87
2022/07/07 02:21:52;;;;;;;7.00;4.15;;;12.80;99.90;;;;;;5048726;28;20033;-86
2022/07/07 02:24:20;;;;;;;8.05;4.47;;;12.80;99.90;;;;;;5073530;28;20056;-88
2022/07/07 02:26:46;;;;;;;8.15;4.47;;;12.80;99.90;;;;;;5072285;28;20496;-88
2022/07/07 02:29:12;;;;;;;7.57;4.20;;;12.90;99.90;;;;;;5059844;28;20116;-87
2022/07/07 02:31:38;;;;;;;5.93;3.38;;;13.00;99.90;;;;;;5061345;28;20025;-87
2022/07/07 02:34:04;;;;;;;5.57;3.60;;;13.10;99.90;;;;;;5051891;28;20025;-87
2022/07/07 02:36:30;;;;;;;7.25;3.80;;;13.20;99.90;;;;;;5049037;28;20057;-87
2022/07/07 02:38:56;;;;;;;5.45;3.72;;;13.30;99.90;;;;;;5048923;28;20033;-86
2022/07/07 02:41:22;;;;;;;5.57;3.88;;;13.30;99.90;;;;;;5032140;28;20040;-86
2022/07/07 02:43:48;;;;;;;9.52;4.05;;;13.40;99.90;;;;;;5065144;28;20017;-86
2022/07/07 02:46:14;;;;;;;13.45;4.38;;;13.50;99.90;;;;;;5053950;28;20047;-87
2022/07/07 02:48:40;;;;;;;8.05;3.60;;;13.60;99.90;;;;;;5053750;28;20033;-86
2022/07/07 02:51:06;;;;;;;11.65;4.50;;;13.60;99.90;;;;;;5051206;28;20541;-87
2022/07/07 02:53:41;;;;;;;7.68;3.85;;;13.50;99.90;;;;;;5050791;28;20115;-87
2022/07/07 02:56:07;;;;;;;5.50;3.88;;;13.50;99.90;;;;;;5053403;28;20473;-86
2022/07/07 02:58:33;;;;;;;5.55;4.05;;;13.50;99.90;;;;;;5047806;28;20035;-87
2022/07/07 03:00:59;;;;;;;8.13;4.30;;;13.50;99.90;;;;;;5065470;28;20060;-87
2022/07/07 03:03:24;;;;;;;7.70;4.10;;;13.50;99.90;;;;;;5050793;28;20031;-86
2022/07/07 03:05:50;;;;;;;10.85;4.00;;;13.50;99.90;;;;;;5051405;28;20699;-87
2022/07/07 03:08:18;;;;;;;12.88;4.53;;;13.50;99.90;;;;;;5067844;28;20185;-85
2022/07/07 03:10:44;;;;;;;8.77;3.78;;;13.50;99.90;;;;;;5034711;28;20044;-86
2022/07/07 03:13:10;;;;;;;15.02;4.07;;;13.50;99.90;;;;;;5051268;28;20047;-86
2022/07/07 03:15:35;;;;;;;10.07;4.43;;;13.50;99.90;;;;;;5051710;28;20044;-86
2022/07/07 03:18:01;;;;;;;4.85;3.63;;;13.60;99.90;;;;;;5052570;28;20454;-86
2022/07/07 03:20:27;;;;;;;5.30;3.65;;;13.50;99.90;;;;;;5067680;28;20029;-87
2022/07/07 03:22:56;;;;;;;9.27;4.68;;;13.50;99.90;;;;;;5073129;28;20033;-87
2022/07/07 03:25:21;;;;;;;5.72;3.55;;;13.50;99.90;;;;;;5033321;28;20526;-87
2022/07/07 03:27:47;;;;;;;15.20;4.43;;;13.60;99.90;;;;;;5052089;28;20029;-86
2022/07/07 03:30:14;;;;;;;6.85;3.92;;;13.60;99.90;;;;;;5023734;28;20036;-86
2022/07/07 03:32:40;;;;;;;6.53;3.58;;;13.70;99.90;;;;;;5051498;28;20036;-87
2022/07/07 03:35:08;;;;;;;11.32;3.88;;;13.70;99.90;;;;;;5050912;28;20033;-86
2022/07/07 03:37:34;;;;;;;5.47;3.47;;;13.80;99.90;;;;;;5047026;28;20242;-86
2022/07/07 03:40:00;;;;;;;15.32;4.20;;;13.80;99.90;;;;;;5050996;28;20082;-85
2022/07/07 03:42:25;;;;;;;7.05;3.85;;;13.90;99.90;;;;;;5051037;28;20083;-86
2022/07/07 03:44:52;;;;;;;8.20;3.30;;;13.90;99.90;;;;;;5058529;28;20009;-88
2022/07/07 03:47:18;;;;;;;9.50;3.55;;;13.90;99.90;;;;;;5058619;28;20021;-86
2022/07/07 03:49:43;;;;;;;5.55;4.03;;;13.90;99.90;;;;;;5068823;28;20116;-87
2022/07/07 03:52:14;;;;;;;5.25;3.40;;;14.00;99.90;;;;;;5060397;28;20108;-86
2022/07/07 03:54:40;;;;;;;10.27;3.50;;;14.10;99.90;;;;;;5052793;28;20032;-86
2022/07/07 03:57:05;;;;;;;6.63;3.33;;;14.10;99.90;;;;;;5051569;28;20084;-87
2022/07/07 03:59:31;;;;;;;7.20;3.28;;;14.10;99.90;;;;;;5048036;28;20039;-87
2022/07/07 04:01:57;;;;;;;5.70;3.45;;;14.10;99.90;;;;;;5064330;28;20035;-86
2022/07/07 04:04:23;;;;;;;11.45;4.05;;;14.00;99.90;;;;;;5051546;28;20069;-87
2022/07/07 04:06:51;;;;;;;8.80;3.60;;;14.00;99.90;;;;;;5055753;28;20028;-87
2022/07/07 04:09:17;;;;;;;10.93;3.40;;;13.90;99.90;;;;;;5057574;28;20135;-86
2022/07/07 04:11:42;;;;;;;9.80;3.78;;;13.90;99.90;;;;;;5077805;28;20013;-89
2022/07/07 04:14:08;;;;;;;5.85;3.42;;;13.90;99.90;;;;;;5074530;28;20079;-88
2022/07/07 04:16:34;;;;;;;6.85;3.42;;;13.90;99.90;;;;;;5074942;28;20045;-88
2022/07/07 04:19:00;;;;;;;5.15;3.28;;;14.00;99.90;;;;;;5074875;28;20090;-87
2022/07/07 04:21:25;;;;;;;7.32;3.38;;;14.00;99.90;;;;;;5069320;28;20029;-86
2022/07/07 04:23:51;;;;;;;8.07;3.17;;;14.10;99.90;;;;;;5053276;28;20025;-87
2022/07/07 04:26:17;;;;;;;9.13;3.20;;;14.10;99.90;;;;;;5054500;28;20033;-86
2022/07/07 04:28:43;;;;;;;7.72;3.63;;;14.20;99.90;;;;;;5055820;28;20059;-87
2022/07/07 04:31:08;;;;;;;6.47;3.40;;;14.20;99.90;;;;;;5056133;28;20033;-86
2022/07/07 04:33:34;;;;;;;8.93;3.13;;;14.30;99.90;;;;;;5052156;28;20101;-86
2022/07/07 04:36:00;;;;;;;6.65;2.90;;;14.30;99.90;;;;;;5055054;28;20104;-86
2022/07/07 04:38:26;;;;;;;10.80;3.08;;;14.50;99.90;;;;;;5051442;28;20036;-86
2022/07/07 04:40:52;;;;;;;4.70;2.50;;;14.50;99.90;;;;;;5048728;28;20035;-86
2022/07/07 04:43:18;;;;;;;7.93;2.85;;;14.70;99.90;;;;;;5050889;28;20123;-87
2022/07/07 04:45:44;;;;;;;10.02;2.83;;;14.80;99.90;;;;;;5051326;28;20091;-86
2022/07/07 04:48:09;;;;;;;7.35;2.97;;;14.90;99.90;;;;;;5035036;28;20047;-86
2022/07/07 04:50:35;;;;;;;14.90;3.75;;;15.00;99.90;;;;;;5055549;28;20078;-85
2022/07/07 04:53:01;;;;;;;6.55;2.50;;;15.00;99.90;;;;;;5051826;28;20033;-86
2022/07/07 04:55:29;;;;;;;14.50;3.80;;;14.90;99.90;;;;;;5042271;28;20036;-86
2022/07/07 04:57:55;;;;;;;5.25;2.83;;;14.80;99.90;;;;;;5082326;28;20028;-86
2022/07/07 05:00:21;;;;;;;8.45;3.00;;;14.70;99.90;;;;;;5049736;28;20842;-85
2022/07/07 05:02:46;;;;;;;4.18;2.50;;;14.70;99.90;;;;;;5027438;28;20036;-87
2022/07/07 05:05:13;;;;;;;6.78;2.70;;;14.90;99.90;;;;;;5047552;28;20013;-86
2022/07/07 05:07:38;;;;;;;7.85;2.45;;;14.90;99.90;;;;;;5052364;28;20032;-87
2022/07/07 05:10:05;;;;;;;6.22;2.70;;;15.10;99.90;;;;;;5047953;28;20031;-86
2022/07/07 05:12:38;;;;;;;6.95;2.30;;;15.30;99.90;;;;;;5032868;28;20029;-86
2022/07/07 05:15:04;;;;;;;7.43;2.90;;;15.50;99.90;;;;;;5057904;28;20025;-87
2022/07/07 05:17:31;;;;;;;4.32;2.25;;;15.50;99.90;;;;;;5048975;28;20029;-86
2022/07/07 05:19:56;;;;;;;5.78;2.55;;;15.40;99.90;;;;;;5048518;28;20086;-86
2022/07/07 05:22:22;;;;;;;6.22;2.58;;;15.10;99.90;;;;;;5050494;28;20037;-86
2022/07/07 05:24:50;;;;;;;6.70;2.88;;;15.00;99.90;;;;;;5048177;28;20037;-86
2022/07/07 05:27:16;;;;;;;6.13;2.90;;;15.00;99.90;;;;;;5066082;28;20628;-85
2022/07/07 05:29:42;;;;;;;6.55;2.63;;;15.10;99.90;;;;;;5032280;28;20148;-85
2022/07/07 05:32:08;;;;;;;5.40;2.85;;;15.10;99.90;;;;;;5048289;28;20052;-86
2022/07/07 05:34:33;;;;;;;6.15;3.03;;;15.20;99.90;;;;;;5049588;28;20037;-86
2022/07/07 05:36:59;;;;;;;5.68;2.65;;;15.10;99.90;;;;;;5033197;28;20021;-86
2022/07/07 05:39:32;;;;;;;6.18;2.80;;;15.00;99.90;;;;;;5065891;28;20359;-86
2022/07/07 05:41:57;;;;;;;11.02;3.80;;;14.70;99.90;;;;;;5052024;28;20040;-87
2022/07/07 05:44:23;;;;;;;5.18;3.47;;;14.50;99.90;;;;;;5081083;28;20390;-87
2022/07/07 05:46:49;;;;;;;6.32;3.00;;;14.50;99.90;;;;;;5067326;28;20033;-85
2022/07/07 05:49:14;;;;;;;6.95;3.30;;;14.50;99.90;;;;;;5038921;28;20140;-86
2022/07/07 05:51:40;;;;;;;4.82;2.72;;;14.50;99.90;;;;;;5033297;28;20576;-86
2022/07/07 05:54:06;;;;;;;9.13;3.45;;;14.30;99.90;;;;;;5048658;28;20033;-86
2022/07/07 05:56:32;;;;;;;4.75;3.30;;;14.30;99.90;;;;;;5066005;28;20045;-86
2022/07/07 05:58:57;;;;;;;7.93;3.80;;;14.40;99.90;;;;;;5065903;28;20749;-86
2022/07/07 06:01:23;;;;;;;6.35;3.83;;;14.40;99.90;;;;;;5049247;28;20040;-86
2022/07/07 06:03:49;;;;;;;8.50;3.70;;;14.40;99.90;;;;;;5066671;28;20029;-85
2022/07/07 06:06:14;;;;;;;4.50;3.20;;;14.50;99.90;;;;;;5050855;28;20048;-86
2022/07/07 06:08:40;;;;;;;7.10;3.40;;;14.50;99.90;;;;;;5066283;28;20111;-86
2022/07/07 06:11:06;;;;;;;4.47;2.80;;;14.60;99.90;;;;;;5048927;28;20094;-86
2022/07/07 06:13:32;;;;;;;3.00;2.50;;;14.60;99.90;;;;;;5053164;28;20049;-88
2022/07/07 06:15:57;;;;;;;6.95;3.20;;;14.60;99.90;;;;;;5058967;28;20040;-86
2022/07/07 06:18:23;;;;;;;5.75;2.90;;;14.70;99.90;;;;;;5053836;28;20056;-87
2022/07/07 06:20:49;;;;;;;6.68;3.33;;;14.80;99.90;;;;;;5052210;28;20040;-87
2022/07/07 06:23:14;;;;;;;5.18;3.05;;;14.90;99.90;;;;;;5050904;28;20426;-86
2022/07/07 06:25:42;;;;;;;10.13;3.20;;;14.90;99.90;;;;;;5034811;28;20033;-86
2022/07/07 06:28:11;;;;;;;5.95;2.92;;;14.80;99.90;;;;;;5065923;28;20025;-87
2022/07/07 06:30:37;;;;;;;8.27;3.20;;;14.80;99.90;;;;;;5048885;28;20162;-85
2022/07/07 06:33:03;;;;;;;4.88;2.72;;;15.00;99.90;;;;;;5065122;28;20478;-87
2022/07/07 06:35:29;;;;;;;6.07;3.25;;;15.40;99.90;;;;;;5049232;28;20116;-84
2022/07/07 06:37:55;;;;;;;8.43;3.25;;;15.40;99.90;;;;;;5052183;28;20035;-85
2022/07/07 06:40:28;;;;;;;12.32;3.38;;;15.30;99.90;;;;;;5052176;28;20036;-85
2022/07/07 06:42:54;;;;;;;5.82;2.90;;;15.10;99.90;;;;;;5069385;28;20037;-86
2022/07/07 06:45:25;;;;;;;8.05;3.00;;;14.90;99.90;;;;;;5051278;28;20032;-85
2022/07/07 06:47:51;;;;;;;16.40;3.65;;;14.80;99.90;;;;;;5051585;28;20047;-85
2022/07/07 06:50:19;;;;;;;3.63;3.10;;;14.70;99.90;;;;;;5051736;28;20029;-86
2022/07/07 06:52:48;;;;;;;7.28;3.55;;;14.70;99.90;;;;;;5052190;28;20037;-86
2022/07/07 06:55:13;;;;;;;5.63;3.45;;;14.70;99.90;;;;;;5041644;28;20044;-87
2022/07/07 06:57:39;;;;;;;6.32;3.25;;;14.90;99.90;;;;;;5053676;28;20375;-86
2022/07/07 07:00:07;;;;;;;6.63;2.83;;;15.10;99.90;;;;;;5051206;28;20040;-87
2022/07/07 07:02:32;;;;;;;9.57;3.75;;;15.30;99.90;;;;;;5051040;28;20116;-86
2022/07/07 07:05:01;;;;;;;9.98;3.60;;;15.40;99.90;;;;;;5029100;28;20116;-86
2022/07/07 07:07:29;;;;;;;7.93;3.58;;;15.60;99.90;;;;;;5047651;28;20029;-86
2022/07/07 07:09:55;;;;;;;6.25;3.42;;;15.80;99.90;;;;;;5051383;28;20021;-86
2022/07/07 07:12:21;;;;;;;6.30;3.42;;;16.00;99.90;;;;;;5053776;28;20040;-87
2022/07/07 07:14:47;;;;;;;5.95;3.15;;;16.40;99.90;;;;;;5051990;28;20461;-85
2022/07/07 07:17:12;;;;;;;6.75;2.95;;;16.80;99.90;;;;;;5052761;28;20020;-86
2022/07/07 07:19:38;;;;;;;4.43;2.90;;;17.20;99.90;;;;;;5050156;28;20031;-86
2022/07/07 07:22:04;;;;;;;8.95;2.70;;;17.50;99.90;;;;;;5065357;28;20041;-86
2022/07/07 07:24:30;;;;;;;5.90;3.08;;;17.80;99.90;;;;;;5054918;28;20040;-86
2022/07/07 07:26:56;;;;;;;4.30;3.22;;;18.10;99.90;;;;;;5051066;28;20033;-86
2022/07/07 07:29:22;;;;;;;6.95;3.30;;;18.10;99.90;;;;;;5054611;28;20035;-87
2022/07/07 07:31:48;;;;;;;6.32;3.85;;;17.90;99.90;;;;;;5035492;28;20033;-87
2022/07/07 07:34:15;;;;;;;10.05;3.58;;;17.50;99.90;;;;;;5051119;28;20127;-86
2022/07/07 07:36:44;;;;;;;8.25;3.50;;;17.20;99.90;;;;;;5051124;28;20037;-87
2022/07/07 07:39:11;;;;;;;6.95;3.67;;;16.80;99.90;;;;;;5058815;28;20043;-86
2022/07/07 07:41:38;;;;;;;7.07;3.40;;;16.60;99.90;;;;;;5035842;28;20486;-87
2022/07/07 07:44:05;;;;;;;12.02;4.45;;;16.50;99.90;;;;;;5048065;28;20029;-86
2022/07/07 07:46:31;;;;;;;9.45;3.50;;;16.30;99.90;;;;;;5054589;28;20055;-86
2022/07/07 07:49:00;;;;;;;6.10;4.20;;;16.20;99.90;;;;;;5050846;28;20036;-87
2022/07/07 07:51:26;;;;;;;12.95;3.67;;;16.10;99.90;;;;;;5051075;28;20029;-86
2022/07/07 07:53:51;;;;;;;8.20;4.05;;;16.00;99.90;;;;;;5051183;28;20533;-85
2022/07/07 07:56:17;;;;;;;9.05;3.72;;;15.80;99.90;;;;;;5051177;28;20028;-85
2022/07/07 07:58:43;;;;;;;13.50;3.90;;;15.60;99.90;;;;;;5067368;28;20069;-86
2022/07/07 08:01:08;;;;;;;10.30;4.05;;;15.50;99.90;;;;;;5067149;28;20542;-87
2022/07/07 08:03:36;;;;;;;9.73;4.43;;;15.40;99.90;;;;;;5050994;28;20175;-86
2022/07/07 08:06:02;;;;;;;8.25;4.05;;;15.50;99.90;;;;;;5037616;28;20032;-87
2022/07/07 08:08:28;;;;;;;6.95;4.00;;;15.70;99.90;;;;;;5068156;28;20081;-86
2022/07/07 08:10:54;;;;;;;6.93;3.70;;;16.10;99.90;;;;;;5051155;28;20127;-85
2022/07/07 08:13:20;;;;;;;6.80;3.88;;;16.50;99.90;;;;;;5051775;28;20028;-86
2022/07/07 08:15:45;;;;;;;8.32;3.90;;;17.00;99.90;;;;;;5062775;28;20040;-88
2022/07/07 08:18:11;;;;;;;12.57;3.83;;;17.60;99.90;;;;;;5065600;28;20072;-86
2022/07/07 08:20:37;;;;;;;6.13;4.78;;;17.70;99.90;;;;;;5052378;28;20033;-87
2022/07/07 08:23:03;;;;;;;8.95;4.57;;;17.50;99.90;;;;;;5050566;28;20064;-86
2022/07/07 08:25:29;;;;;;;9.88;4.47;;;17.40;99.90;;;;;;5058334;28;20486;-85
2022/07/07 08:27:54;;;;;;;8.02;4.18;;;17.20;99.90;;;;;;5051402;28;20076;-86
2022/07/07 08:30:20;;;;;;;8.60;3.60;;;17.20;99.90;;;;;;5053169;28;20097;-85
2022/07/07 08:32:46;;;;;;;8.35;4.47;;;16.90;99.90;;;;;;5051506;28;20473;-86
2022/07/07 08:35:19;;;;;;;14.05;4.30;;;16.90;99.90;;;;;;5050659;28;20025;-86
2022/07/07 08:37:45;;;;;;;11.63;4.28;;;17.00;99.90;;;;;;5069788;28;20036;-87
2022/07/07 08:40:11;;;;;;;10.77;4.40;;;16.90;99.90;;;;;;5061954;28;20572;-86
2022/07/07 08:42:37;;;;;;;6.95;4.68;;;16.90;99.90;;;;;;5050398;28;20040;-86
2022/07/07 08:45:03;;;;;;;8.68;4.70;;;16.70;99.90;;;;;;5080174;28;20544;-88
2022/07/07 08:47:37;;;;;;;11.27;4.90;;;16.60;99.90;;;;;;5040670;28;20033;-86
2022/07/07 08:50:03;;;;;;;12.30;3.97;;;16.90;99.90;;;;;;5025878;28;20033;-86
2022/07/07 08:52:29;;;;;;;8.80;4.65;;;17.30;99.90;;;;;;5063989;28;20025;-86
2022/07/07 08:54:56;;;;;;;11.20;5.22;;;17.50;99.90;;;;;;5051198;28;20012;-89
2022/07/07 08:57:24;;;;;;;12.35;5.55;;;17.40;99.90;;;;;;5090877;28;20094;-89
2022/07/07 08:59:56;;;;;;;13.77;5.40;;;17.40;99.90;;;;;;5059463;28;20394;-86
2022/07/07 09:02:24;;;;;;;12.52;4.65;;;17.30;99.90;;;;;;5065359;28;20421;-85
2022/07/07 09:04:53;;;;;;;14.30;5.40;;;17.30;99.90;;;;;;5039310;28;20032;-87
2022/07/07 09:07:19;;;;;;;11.65;5.15;;;17.40;99.90;;;;;;5051478;28;20875;-85
2022/07/07 09:09:52;;;;;;;7.60;4.18;;;17.50;99.90;;;;;;5050949;28;20119;-85
2022/07/07 09:12:20;;;;;;;10.13;4.30;;;17.80;99.90;;;;;;5036158;28;20133;-87
2022/07/07 09:14:50;;;;;;;13.75;5.55;;;18.20;99.90;;;;;;5046578;28;20111;-85
2022/07/07 09:17:32;;;;;;;7.47;3.83;;;18.30;99.90;;;;;;5052194;28;20136;-86
2022/07/07 09:20:01;;;;;;;10.02;4.20;;;18.90;99.90;;;;;;5047737;28;20128;-86
2022/07/07 09:22:46;;;;;;;7.72;3.53;;;18.90;99.90;;;;;;5031890;28;20486;-88
2022/07/07 09:25:12;;;;;;;10.15;3.85;;;19.00;99.90;;;;;;5057722;28;20032;-85
2022/07/07 09:27:52;;;;;;;12.00;3.85;;;19.20;99.90;;;;;;5023930;28;20025;-84
2022/07/07 09:30:29;;;;;;;11.68;3.72;;;19.30;99.90;;;;;;5031257;28;20568;-85
2022/07/07 09:32:55;;;;;;;7.05;4.15;;;19.40;99.90;;;;;;5049312;28;20107;-86
2022/07/07 09:38:17;;;;;;;9.35;3.95;;;19.20;99.90;;;;;;5084329;28;20016;-85
2022/07/07 09:41:05;;;;;;;8.35;4.05;;;19.40;99.90;;;;;;5034424;28;20032;-86
2022/07/07 09:43:49;;;;;;;8.60;3.78;;;20.00;99.90;;;;;;5066823;28;20493;-87
2022/07/07 09:46:21;;;;;;;8.35;3.85;;;21.20;99.90;;;;;;5048779;28;20013;-86
2022/07/07 09:48:51;;;;;;;10.45;3.90;;;21.60;99.90;;;;;;5046635;28;20021;-88
2022/07/07 09:51:30;;;;;;;15.65;3.85;;;20.60;99.90;;;;;;5049363;28;20021;-87
2022/07/07 09:54:14;;;;;;;24.80;12.52;;;19.80;99.90;;;;;;5082255;28;20120;-86
2022/07/07 09:56:45;;;;;;;14.95;6.57;;;19.40;99.90;;;;;;5048300;28;20033;-87
2022/07/07 09:59:13;;;;;;;8.68;3.83;;;19.40;99.90;;;;;;5049855;28;20405;-86
2022/07/07 10:01:43;;;;;;;7.70;3.83;;;19.70;99.90;;;;;;5052580;28;20452;-88
2022/07/07 10:04:11;;;;;;;7.20;4.00;;;19.80;99.90;;;;;;5073666;28;20040;-86
2022/07/07 10:06:41;;;;;;;10.05;3.55;;;19.70;99.90;;;;;;5060971;28;20431;-86
2022/07/07 10:09:10;;;;;;;8.95;3.90;;;19.60;99.90;;;;;;5068448;28;20036;-86
2022/07/07 10:11:46;;;;;;;8.05;3.35;;;19.50;99.90;;;;;;5055210;28;20731;-85
2022/07/07 10:14:26;;;;;;;7.00;4.00;;;19.10;99.90;;;;;;5058839;28;20032;-85
2022/07/07 10:16:53;;;;;;;10.68;3.65;;;18.60;99.90;;;;;;5053310;28;20028;-85
2022/07/07 10:19:22;;;;;;;11.00;4.60;;;18.50;99.90;;;;;;5052121;28;20093;-85
2022/07/07 10:21:52;;;;;;;9.82;4.10;;;18.50;99.90;;;;;;5063391;28;20747;-85
2022/07/07 10:24:25;;;;;;;6.47;4.10;;;18.30;99.90;;;;;;5059382;28;20025;-85
2022/07/07 10:26:53;;;;;;;7.03;3.30;;;18.10;99.90;;;;;;5036720;28;20036;-86
2022/07/07 10:29:42;;;;;;;9.48;3.75;;;17.80;99.90;;;;;;5053694;28;20037;-86
2022/07/07 10:32:17;;;;;;;9.65;3.83;;;17.90;99.90;;;;;;5065744;28;20678;-86
2022/07/07 10:34:51;;;;;;;7.03;3.72;;;17.80;99.90;;;;;;5054908;28;20044;-87
2022/07/07 10:37:19;;;;;;;5.32;4.18;;;17.60;99.90;;;;;;5072388;28;20052;-86
2022/07/07 10:39:51;;;;;;;8.10;4.45;;;17.50;99.90;;;;;;5054771;28;20032;-86
2022/07/07 10:42:16;;;;;;;9.63;4.88;;;17.50;99.90;;;;;;5055956;28;20102;-86
2022/07/07 10:44:47;;;;;;;5.68;4.00;;;17.50;99.90;;;;;;5054073;28;20506;-87
2022/07/07 10:47:17;;;;;;;10.05;3.75;;;17.50;99.90;;;;;;5056654;28;20033;-86
2022/07/07 10:49:48;;;;;;;6.88;4.50;;;17.80;99.90;;;;;;5054401;28;20028;-86
2022/07/07 10:52:17;;;;;;;9.55;3.75;;;17.80;99.90;;;;;;5054586;28;20086;-86
2022/07/07 10:54:52;;;;;;;14.30;4.28;;;18.00;99.90;;;;;;5065128;28;20503;-88
2022/07/07 10:57:21;;;;;;;8.35;4.40;;;17.90;99.90;;;;;;5070690;28;20247;-86
2022/07/07 11:00:09;;;;;;;9.40;4.25;;;17.80;99.90;;;;;;5053715;28;20513;-88
2022/07/07 11:02:34;;;;;;;10.77;4.65;;;17.20;99.90;;;;;;5070872;28;20040;-85
2022/07/07 11:05:03;;;;;;;10.30;5.25;;;16.90;99.90;;;;;;5053505;28;20385;-86
2022/07/07 11:07:29;;;;;;;11.93;6.43;;;16.50;99.90;;;;;;5054669;28;20128;-85
2022/07/07 11:10:05;;;;;;;12.77;6.10;;;16.30;99.90;;;;;;5066945;28;20040;-91
2022/07/07 11:12:53;;;;;;;14.35;6.80;;;15.80;99.90;;;;;;5069506;28;20102;-86
2022/07/07 11:15:22;;;;;;;13.70;7.70;;;15.30;99.90;;;;;;5039233;28;20454;-86
2022/07/07 11:17:52;;;;;;;16.60;7.75;;;15.40;99.90;;;;;;5090434;28;20037;-86
2022/07/07 11:20:19;;;;;;;16.08;8.18;;;15.30;99.90;;;;;;5055470;28;20082;-86
2022/07/07 11:23:07;;;;;;;15.52;8.38;;;15.10;99.90;;;;;;5054196;28;20119;-87
2022/07/07 11:25:34;;;;;;;12.02;8.18;;;15.20;99.90;;;;;;5055825;28;20029;-88
2022/07/07 11:28:00;;;;;;;16.15;8.68;;;15.10;99.90;;;;;;5053651;28;20028;-87
2022/07/07 11:30:32;;;;;;;11.20;8.55;;;15.00;99.90;;;;;;5054916;28;20091;-87
2022/07/07 11:32:58;;;;;;;;;;;14.90;99.90;;;;;;5054164;28;20032;-87
2022/07/07 11:35:28;;;;;;;13.30;9.23;;;14.90;99.90;;;;;;5086974;28;19917;-90
2022/07/07 11:37:54;;;;;;;20.50;9.25;;;14.80;99.90;;;;;;5054856;28;20037;-90
2022/07/07 11:40:22;;;;;;;12.48;9.80;;;14.80;99.90;;;;;;5068687;28;20099;-89
2022/07/07 11:42:55;;;;;;;20.00;9.73;;;14.70;99.90;;;;;;5067961;28;20040;-87
2022/07/07 11:45:26;;;;;;;16.70;10.70;;;14.70;99.90;;;;;;5053043;28;20112;-87
2022/07/07 11:47:55;;;;;;;17.37;10.83;;;14.70;99.90;;;;;;5052865;28;20020;-87
2022/07/07 11:50:24;;;;;;;14.80;10.07;;;14.80;99.90;;;;;;5053815;28;20032;-86
2022/07/07 11:52:55;;;;;;;15.23;9.85;;;14.90;99.90;;;;;;5034988;28;20802;-88
2022/07/07 11:55:22;;;;;;;15.80;10.10;;;14.90;99.90;;;;;;5034633;28;20163;-86
2022/07/07 11:57:52;;;;;;;15.20;9.68;;;14.90;99.90;;;;;;5059521;28;20124;-88
2022/07/07 12:00:29;;;;;;;14.25;8.70;;;14.80;99.90;;;;;;5051391;28;20386;-87
2022/07/07 12:02:56;;;;;;;12.30;8.82;;;14.80;99.90;;;;;;5068126;28;20082;-88
2022/07/07 12:05:25;;;;;;;12.27;8.20;;;14.80;99.90;;;;;;5051204;28;20067;-88
2022/07/07 12:07:56;;;;;;;11.48;6.72;;;14.80;99.90;;;;;;5053925;28;20028;-88
2022/07/07 12:10:59;;;;;;;9.48;6.32;;;14.80;99.90;;;;;;5047079;28;20558;-88
2022/07/07 12:13:25;;;;;;;6.97;6.20;;;14.80;99.90;;;;;;5051885;28;20028;-88
2022/07/07 12:15:53;;;;;;;10.38;6.30;;;14.70;99.90;;;;;;5060875;28;20036;-86
2022/07/07 12:18:36;;;;;;;10.02;6.15;;;14.80;99.90;;;;;;5056617;28;20227;-88
2022/07/07 12:21:05;;;;;;;6.65;5.55;;;14.90;99.90;;;;;;5064750;28;20037;-87
2022/07/07 12:23:39;;;;;;;6.20;4.47;;;14.90;99.90;;;;;;5039882;28;20024;-87
2022/07/07 12:26:14;;;;;;;8.93;4.82;;;15.00;99.90;;;;;;5061587;28;20035;-87
2022/07/07 12:28:40;;;;;;;5.90;4.95;;;15.00;99.90;;;;;;5052400;28;20025;-87
2022/07/07 12:31:07;;;;;;;9.38;4.70;;;14.90;99.90;;;;;;5057941;28;20025;-87
2022/07/07 12:33:36;;;;;;;6.18;5.00;;;14.90;99.90;;;;;;5068960;28;20082;-88
2022/07/07 12:36:21;;;;;;;6.63;5.85;;;15.00;99.90;;;;;;5055100;28;20021;-88
2022/07/07 12:38:53;;;;;;;6.50;5.20;;;15.10;99.90;;;;;;5053380;28;20123;-85
2022/07/07 12:41:25;;;;;;;8.60;4.97;;;15.00;99.90;;;;;;5052921;28;20479;-87
2022/07/07 12:43:53;;;;;;;6.57;5.53;;;14.90;99.90;;;;;;5053769;28;20025;-89
2022/07/07 12:46:19;;;;;;;8.13;5.15;;;14.90;99.90;;;;;;5053519;28;20678;-87
2022/07/07 12:48:52;;;;;;;6.18;5.20;;;14.80;99.90;;;;;;5053440;28;20082;-86